sensor_id;sensor_type;location;lat;lon;timestamp;pressure;altitude;pressure_sealevel;temperature;humidity
14120;BME280;7138;49.246;9.100;2023-06-14T00:01:55;98221.31;;;19.53;59.89
14120;BME280;7138;49.246;9.100;2023-06-14T00:04:21;98226.53;;;19.53;60.36
14120;BME280;7138;49.246;9.100;2023-06-14T00:06:51;98226.69;;;19.50;60.59
14120;BME280;7138;49.246;9.100;2023-06-14T00:09:16;98224.16;;;19.48;60.48
14120;BME280;7138;49.246;9.100;2023-06-14T00:11:43;98218.09;;;19.46;60.62
14120;BME280;7138;49.246;9.100;2023-06-14T00:14:11;98227.03;;;19.42;60.55
14120;BME280;7138;49.246;9.100;2023-06-14T00:16:36;98225.38;;;19.40;60.64
14120;BME280;7138;49.246;9.100;2023-06-14T00:19:04;98219.63;;;19.30;60.50
14120;BME280;7138;49.246;9.100;2023-06-14T00:21:30;98219.47;;;19.35;60.84
14120;BME280;7138;49.246;9.100;2023-06-14T00:23:57;98222.06;;;19.35;60.78
14120;BME280;7138;49.246;9.100;2023-06-14T00:26:23;98216.97;;;19.32;60.75
14120;BME280;7138;49.246;9.100;2023-06-14T00:28:49;98221.34;;;19.31;60.62
14120;BME280;7138;49.246;9.100;2023-06-14T00:31:16;98221.44;;;19.30;61.06
14120;BME280;7138;49.246;9.100;2023-06-14T00:33:42;98226.00;;;19.25;61.10
14120;BME280;7138;49.246;9.100;2023-06-14T00:36:08;98218.22;;;19.23;61.29
14120;BME280;7138;49.246;9.100;2023-06-14T00:38:34;98214.78;;;19.21;61.15
14120;BME280;7138;49.246;9.100;2023-06-14T00:41:00;98214.09;;;19.18;61.28
14120;BME280;7138;49.246;9.100;2023-06-14T00:43:26;98212.38;;;19.17;61.68
14120;BME280;7138;49.246;9.100;2023-06-14T00:45:52;98206.41;;;19.13;61.62
14120;BME280;7138;49.246;9.100;2023-06-14T00:48:20;98206.53;;;19.10;61.99
14120;BME280;7138;49.246;9.100;2023-06-14T00:50:46;98213.63;;;19.08;61.92
14120;BME280;7138;49.246;9.100;2023-06-14T00:53:14;98207.66;;;19.04;62.08
14120;BME280;7138;49.246;9.100;2023-06-14T00:55:41;98207.59;;;19.06;62.21
14120;BME280;7138;49.246;9.100;2023-06-14T00:58:07;98212.06;;;19.04;62.17
14120;BME280;7138;49.246;9.100;2023-06-14T01:00:34;98208.66;;;19.02;62.29
14120;BME280;7138;49.246;9.100;2023-06-14T01:03:00;98207.94;;;18.98;62.23
14120;BME280;7138;49.246;9.100;2023-06-14T01:05:28;98219.31;;;18.97;62.44
14120;BME280;7138;49.246;9.100;2023-06-14T01:08:17;98217.63;;;18.96;62.37
14120;BME280;7138;49.246;9.100;2023-06-14T01:10:58;98215.13;;;18.93;62.60
14120;BME280;7138;49.246;9.100;2023-06-14T01:13:32;98204.97;;;18.86;62.72
14120;BME280;7138;49.246;9.100;2023-06-14T01:15:59;98214.53;;;18.87;62.80
14120;BME280;7138;49.246;9.100;2023-06-14T01:18:28;98217.16;;;18.87;62.72
14120;BME280;7138;49.246;9.100;2023-06-14T01:20:56;98216.47;;;18.82;62.75
14120;BME280;7138;49.246;9.100;2023-06-14T01:23:24;98218.31;;;18.80;62.67
14120;BME280;7138;49.246;9.100;2023-06-14T01:25:51;98211.63;;;18.73;63.02
14120;BME280;7138;49.246;9.100;2023-06-14T01:28:21;98214.75;;;18.61;63.22
14120;BME280;7138;49.246;9.100;2023-06-14T01:30:50;98209.69;;;18.56;62.96
14120;BME280;7138;49.246;9.100;2023-06-14T01:33:20;98208.81;;;18.57;62.68
14120;BME280;7138;49.246;9.100;2023-06-14T01:35:49;98204.72;;;18.50;62.59
14120;BME280;7138;49.246;9.100;2023-06-14T01:38:17;98218.59;;;18.52;62.91
14120;BME280;7138;49.246;9.100;2023-06-14T01:40:48;98211.06;;;18.43;63.34
14120;BME280;7138;49.246;9.100;2023-06-14T01:43:15;98217.16;;;18.43;62.88
14120;BME280;7138;49.246;9.100;2023-06-14T01:45:42;98220.81;;;18.39;62.94
14120;BME280;7138;49.246;9.100;2023-06-14T01:48:10;98215.69;;;18.36;63.10
14120;BME280;7138;49.246;9.100;2023-06-14T01:50:36;98216.66;;;18.34;63.11
14120;BME280;7138;49.246;9.100;2023-06-14T01:53:02;98215.03;;;18.31;63.22
14120;BME280;7138;49.246;9.100;2023-06-14T01:55:27;98221.16;;;18.30;63.10
14120;BME280;7138;49.246;9.100;2023-06-14T01:57:55;98224.75;;;18.28;62.96
14120;BME280;7138;49.246;9.100;2023-06-14T02:00:21;98225.75;;;18.25;63.06
14120;BME280;7138;49.246;9.100;2023-06-14T02:02:47;98218.00;;;18.22;63.15
14120;BME280;7138;49.246;9.100;2023-06-14T02:05:14;98228.59;;;18.19;63.60
14120;BME280;7138;49.246;9.100;2023-06-14T02:07:44;98228.66;;;18.18;63.63
14120;BME280;7138;49.246;9.100;2023-06-14T02:10:11;98222.56;;;18.17;64.17
14120;BME280;7138;49.246;9.100;2023-06-14T02:12:37;98221.72;;;18.17;63.85
14120;BME280;7138;49.246;9.100;2023-06-14T02:15:05;98229.69;;;18.14;63.95
14120;BME280;7138;49.246;9.100;2023-06-14T02:17:32;98227.22;;;18.09;63.90
14120;BME280;7138;49.246;9.100;2023-06-14T02:19:58;98227.34;;;18.06;63.81
14120;BME280;7138;49.246;9.100;2023-06-14T02:22:24;98220.34;;;18.07;63.91
14120;BME280;7138;49.246;9.100;2023-06-14T02:24:50;98225.66;;;18.05;63.92
14120;BME280;7138;49.246;9.100;2023-06-14T02:27:16;98224.81;;;18.05;63.66
14120;BME280;7138;49.246;9.100;2023-06-14T02:29:42;98229.06;;;18.07;63.86
14120;BME280;7138;49.246;9.100;2023-06-14T02:32:09;98229.84;;;18.09;64.04
14120;BME280;7138;49.246;9.100;2023-06-14T02:34:35;98224.63;;;18.09;63.95
14120;BME280;7138;49.246;9.100;2023-06-14T02:37:01;98225.47;;;18.10;63.93
14120;BME280;7138;49.246;9.100;2023-06-14T02:39:28;98219.38;;;18.09;64.40
14120;BME280;7138;49.246;9.100;2023-06-14T02:41:54;98219.38;;;18.09;64.29
14120;BME280;7138;49.246;9.100;2023-06-14T02:44:24;98228.03;;;18.11;64.50
14120;BME280;7138;49.246;9.100;2023-06-14T02:46:52;98234.25;;;18.09;64.70
14120;BME280;7138;49.246;9.100;2023-06-14T02:49:19;98226.44;;;18.07;64.62
14120;BME280;7138;49.246;9.100;2023-06-14T02:51:45;98236.91;;;18.07;64.30
14120;BME280;7138;49.246;9.100;2023-06-14T02:54:11;98224.72;;;18.06;64.23
14120;BME280;7138;49.246;9.100;2023-06-14T02:56:37;98230.91;;;18.05;64.41
14120;BME280;7138;49.246;9.100;2023-06-14T02:59:02;98239.69;;;18.02;64.31
14120;BME280;7138;49.246;9.100;2023-06-14T03:01:29;98233.63;;;18.02;64.34
14120;BME280;7138;49.246;9.100;2023-06-14T03:04:00;98246.84;;;17.99;64.43
14120;BME280;7138;49.246;9.100;2023-06-14T03:06:28;98239.88;;;17.98;64.37
14120;BME280;7138;49.246;9.100;2023-06-14T03:08:56;98242.53;;;17.96;64.50
14120;BME280;7138;49.246;9.100;2023-06-14T03:11:22;98243.47;;;17.95;64.24
14120;BME280;7138;49.246;9.100;2023-06-14T03:13:48;98245.16;;;17.96;64.17
14120;BME280;7138;49.246;9.100;2023-06-14T03:16:16;98242.63;;;17.95;64.52
14120;BME280;7138;49.246;9.100;2023-06-14T03:18:45;98242.63;;;17.95;64.36
14120;BME280;7138;49.246;9.100;2023-06-14T03:21:11;98247.72;;;17.98;64.34
14120;BME280;7138;49.246;9.100;2023-06-14T03:23:38;98247.84;;;17.95;64.41
14120;BME280;7138;49.246;9.100;2023-06-14T03:26:04;98251.47;;;17.91;64.56
14120;BME280;7138;49.246;9.100;2023-06-14T03:28:30;98248.06;;;17.89;64.71
14120;BME280;7138;49.246;9.100;2023-06-14T03:30:56;98255.03;;;17.90;64.60
14120;BME280;7138;49.246;9.100;2023-06-14T03:33:22;98252.41;;;17.90;64.80
14120;BME280;7138;49.246;9.100;2023-06-14T03:35:47;98261.09;;;17.90;64.89
14120;BME280;7138;49.246;9.100;2023-06-14T03:38:13;98260.28;;;17.88;64.66
14120;BME280;7138;49.246;9.100;2023-06-14T03:40:40;98260.47;;;17.84;64.93
14120;BME280;7138;49.246;9.100;2023-06-14T03:43:06;98258.88;;;17.80;65.28
14120;BME280;7138;49.246;9.100;2023-06-14T03:45:32;98255.47;;;17.78;65.45
14120;BME280;7138;49.246;9.100;2023-06-14T03:47:58;98265.97;;;17.76;65.92
14120;BME280;7138;49.246;9.100;2023-06-14T03:50:26;98266.06;;;17.75;65.91
14120;BME280;7138;49.246;9.100;2023-06-14T03:52:52;98264.56;;;17.68;66.14
14120;BME280;7138;49.246;9.100;2023-06-14T03:55:19;98281.03;;;17.70;66.14
14120;BME280;7138;49.246;9.100;2023-06-14T03:57:46;98273.94;;;17.73;66.16
14120;BME280;7138;49.246;9.100;2023-06-14T04:00:13;98279.22;;;17.72;65.97
14120;BME280;7138;49.246;9.100;2023-06-14T04:02:39;98282.84;;;17.68;66.49
14120;BME280;7138;49.246;9.100;2023-06-14T04:05:05;98284.69;;;17.66;67.05
14120;BME280;7138;49.246;9.100;2023-06-14T04:07:34;98287.31;;;17.66;66.66
14120;BME280;7138;49.246;9.100;2023-06-14T04:10:07;98285.63;;;17.63;67.13
14120;BME280;7138;49.246;9.100;2023-06-14T04:12:33;98288.13;;;17.66;66.59
14120;BME280;7138;49.246;9.100;2023-06-14T04:15:01;98290.59;;;17.71;67.02
14120;BME280;7138;49.246;9.100;2023-06-14T04:17:26;98298.44;;;17.71;67.20
14120;BME280;7138;49.246;9.100;2023-06-14T04:19:52;98294.00;;;17.73;67.41
14120;BME280;7138;49.246;9.100;2023-06-14T04:22:18;98296.47;;;17.77;66.59
14120;BME280;7138;49.246;9.100;2023-06-14T04:24:44;98300.88;;;17.75;67.36
14120;BME280;7138;49.246;9.100;2023-06-14T04:27:10;98304.25;;;17.79;67.08
14120;BME280;7138;49.246;9.100;2023-06-14T04:29:36;98305.22;;;17.76;66.89
14120;BME280;7138;49.246;9.100;2023-06-14T04:32:04;98311.31;;;17.77;67.13
14120;BME280;7138;49.246;9.100;2023-06-14T04:34:32;98314.38;;;17.88;66.82
14120;BME280;7138;49.246;9.100;2023-06-14T04:36:59;98314.91;;;17.97;66.55
14120;BME280;7138;49.246;9.100;2023-06-14T04:39:26;98319.75;;;18.08;66.27
14120;BME280;7138;49.246;9.100;2023-06-14T04:41:53;98322.28;;;18.10;66.24
14120;BME280;7138;49.246;9.100;2023-06-14T04:44:23;98321.50;;;18.08;66.61
14120;BME280;7138;49.246;9.100;2023-06-14T04:46:56;98318.06;;;18.06;66.72
14120;BME280;7138;49.246;9.100;2023-06-14T04:49:23;98320.66;;;18.07;67.73
14120;BME280;7138;49.246;9.100;2023-06-14T04:51:49;98322.19;;;18.13;67.75
14120;BME280;7138;49.246;9.100;2023-06-14T04:54:23;98322.16;;;18.14;68.56
14120;BME280;7138;49.246;9.100;2023-06-14T04:56:50;98326.34;;;18.18;68.08
14120;BME280;7138;49.246;9.100;2023-06-14T04:59:16;98328.06;;;18.19;68.53
14120;BME280;7138;49.246;9.100;2023-06-14T05:01:43;98319.94;;;18.27;68.43
14120;BME280;7138;49.246;9.100;2023-06-14T05:04:13;98324.84;;;18.34;68.35
14120;BME280;7138;49.246;9.100;2023-06-14T05:06:41;98332.56;;;18.84;67.43
14120;BME280;7138;49.246;9.100;2023-06-14T05:09:06;98334.56;;;19.42;66.66
14120;BME280;7138;49.246;9.100;2023-06-14T05:11:32;98340.41;;;20.08;64.64
14120;BME280;7138;49.246;9.100;2023-06-14T05:13:58;98336.28;;;20.79;63.54
14120;BME280;7138;49.246;9.100;2023-06-14T05:16:24;98336.09;;;21.53;62.19
14120;BME280;7138;49.246;9.100;2023-06-14T05:18:51;98335.72;;;22.28;60.87
14120;BME280;7138;49.246;9.100;2023-06-14T05:21:17;98332.41;;;22.89;59.08
14120;BME280;7138;49.246;9.100;2023-06-14T05:23:45;98330.59;;;23.50;58.38
14120;BME280;7138;49.246;9.100;2023-06-14T05:26:11;98338.53;;;24.08;57.31
14120;BME280;7138;49.246;9.100;2023-06-14T05:28:37;98345.81;;;24.61;56.52
14120;BME280;7138;49.246;9.100;2023-06-14T05:31:03;98346.50;;;25.06;55.97
14120;BME280;7138;49.246;9.100;2023-06-14T05:33:28;98340.78;;;25.38;54.23
14120;BME280;7138;49.246;9.100;2023-06-14T05:35:54;98345.78;;;25.82;55.14
14120;BME280;7138;49.246;9.100;2023-06-14T05:38:21;98356.31;;;26.09;52.86
14120;BME280;7138;49.246;9.100;2023-06-14T05:40:48;98359.19;;;26.44;52.77
14120;BME280;7138;49.246;9.100;2023-06-14T05:43:14;98357.34;;;26.70;52.93
14120;BME280;7138;49.246;9.100;2023-06-14T05:45:40;98362.56;;;26.84;52.39
14120;BME280;7138;49.246;9.100;2023-06-14T05:48:05;98362.72;;;27.30;52.95
14120;BME280;7138;49.246;9.100;2023-06-14T05:50:31;98359.81;;;27.91;51.90
14120;BME280;7138;49.246;9.100;2023-06-14T05:52:57;98353.38;;;28.29;50.23
14120;BME280;7138;49.246;9.100;2023-06-14T05:55:23;98369.13;;;28.76;49.66
14120;BME280;7138;49.246;9.100;2023-06-14T05:57:50;98365.91;;;29.15;49.03
14120;BME280;7138;49.246;9.100;2023-06-14T06:00:17;98366.06;;;29.57;49.23
14120;BME280;7138;49.246;9.100;2023-06-14T06:02:44;98370.41;;;29.90;48.08
14120;BME280;7138;49.246;9.100;2023-06-14T06:05:11;98369.38;;;30.02;46.49
14120;BME280;7138;49.246;9.100;2023-06-14T06:07:37;98366.44;;;30.05;47.72
14120;BME280;7138;49.246;9.100;2023-06-14T06:10:06;98364.59;;;30.26;46.75
14120;BME280;7138;49.246;9.100;2023-06-14T06:12:32;98367.09;;;30.39;46.95
14120;BME280;7138;49.246;9.100;2023-06-14T06:15:00;98369.00;;;30.57;47.05
14120;BME280;7138;49.246;9.100;2023-06-14T06:17:26;98370.00;;;30.96;47.06
14120;BME280;7138;49.246;9.100;2023-06-14T06:19:52;98371.75;;;31.07;46.62
14120;BME280;7138;49.246;9.100;2023-06-14T06:22:17;98371.28;;;31.02;45.20
14120;BME280;7138;49.246;9.100;2023-06-14T06:24:43;98374.75;;;30.53;46.05
14120;BME280;7138;49.246;9.100;2023-06-14T06:27:09;98368.13;;;30.26;47.11
14120;BME280;7138;49.246;9.100;2023-06-14T06:29:36;98377.09;;;30.25;46.73
14120;BME280;7138;49.246;9.100;2023-06-14T06:32:04;98378.47;;;30.20;47.01
14120;BME280;7138;49.246;9.100;2023-06-14T06:34:30;98371.31;;;30.20;47.91
14120;BME280;7138;49.246;9.100;2023-06-14T06:36:56;98378.94;;;29.84;46.41
14120;BME280;7138;49.246;9.100;2023-06-14T06:39:22;98382.88;;;29.25;47.39
14120;BME280;7138;49.246;9.100;2023-06-14T06:41:47;98393.59;;;28.81;48.14
14120;BME280;7138;49.246;9.100;2023-06-14T06:44:13;98394.50;;;28.58;49.03
14120;BME280;7138;49.246;9.100;2023-06-14T06:46:39;98394.47;;;28.25;48.90
14120;BME280;7138;49.246;9.100;2023-06-14T06:49:08;98396.66;;;28.19;49.47
14120;BME280;7138;49.246;9.100;2023-06-14T06:51:35;98404.16;;;27.91;49.46
14120;BME280;7138;49.246;9.100;2023-06-14T06:54:02;98399.34;;;27.61;50.13
14120;BME280;7138;49.246;9.100;2023-06-14T06:56:28;98405.91;;;27.44;50.21
14120;BME280;7138;49.246;9.100;2023-06-14T06:58:54;98401.03;;;27.38;50.17
14120;BME280;7138;49.246;9.100;2023-06-14T07:01:20;98410.66;;;27.15;50.01
14120;BME280;7138;49.246;9.100;2023-06-14T07:03:46;98406.72;;;27.08;51.33
14120;BME280;7138;49.246;9.100;2023-06-14T07:06:13;98402.75;;;26.90;50.67
14120;BME280;7138;49.246;9.100;2023-06-14T07:08:39;98408.28;;;26.75;50.93
14120;BME280;7138;49.246;9.100;2023-06-14T07:11:05;98403.00;;;26.49;51.60
14120;BME280;7138;49.246;9.100;2023-06-14T07:13:31;98407.88;;;26.43;52.01
14120;BME280;7138;49.246;9.100;2023-06-14T07:16:00;98408.09;;;26.40;52.48
14120;BME280;7138;49.246;9.100;2023-06-14T07:18:26;98411.59;;;26.40;53.25
14120;BME280;7138;49.246;9.100;2023-06-14T07:20:52;98407.22;;;26.27;52.81
14120;BME280;7138;49.246;9.100;2023-06-14T07:23:20;98405.41;;;26.15;53.50
14120;BME280;7138;49.246;9.100;2023-06-14T07:25:46;98424.16;;;25.99;52.50
14120;BME280;7138;49.246;9.100;2023-06-14T07:28:12;98424.13;;;25.86;54.56
14120;BME280;7138;49.246;9.100;2023-06-14T07:30:38;98420.31;;;25.90;54.23
14120;BME280;7138;49.246;9.100;2023-06-14T07:33:04;98425.44;;;26.06;55.90
14120;BME280;7138;49.246;9.100;2023-06-14T07:35:30;98425.88;;;26.13;52.77
14120;BME280;7138;49.246;9.100;2023-06-14T07:37:55;98416.41;;;26.08;54.64
14120;BME280;7138;49.246;9.100;2023-06-14T07:40:23;98422.94;;;26.17;54.79
14120;BME280;7138;49.246;9.100;2023-06-14T07:42:48;98423.16;;;26.27;52.45
14120;BME280;7138;49.246;9.100;2023-06-14T07:45:16;98435.69;;;26.37;52.59
14120;BME280;7138;49.246;9.100;2023-06-14T07:47:42;98435.69;;;26.50;52.74
14120;BME280;7138;49.246;9.100;2023-06-14T07:50:09;98429.41;;;26.51;52.46
14120;BME280;7138;49.246;9.100;2023-06-14T07:52:35;98426.66;;;26.52;53.00
14120;BME280;7138;49.246;9.100;2023-06-14T07:55:01;98424.22;;;26.62;53.55
14120;BME280;7138;49.246;9.100;2023-06-14T07:57:28;98426.00;;;26.74;55.11
14120;BME280;7138;49.246;9.100;2023-06-14T07:59:54;98425.81;;;26.90;52.86
14120;BME280;7138;49.246;9.100;2023-06-14T08:02:20;98428.03;;;26.96;53.01
14120;BME280;7138;49.246;9.100;2023-06-14T08:04:46;98435.22;;;27.06;52.15
14120;BME280;7138;49.246;9.100;2023-06-14T08:07:14;98437.19;;;27.15;52.80
14120;BME280;7138;49.246;9.100;2023-06-14T08:09:39;98435.47;;;27.27;51.91
14120;BME280;7138;49.246;9.100;2023-06-14T08:12:07;98432.91;;;27.38;52.51
14120;BME280;7138;49.246;9.100;2023-06-14T08:14:38;98442.66;;;27.38;51.73
14120;BME280;7138;49.246;9.100;2023-06-14T08:17:04;98437.78;;;27.44;52.16
14120;BME280;7138;49.246;9.100;2023-06-14T08:19:30;98431.22;;;27.61;54.34
14120;BME280;7138;49.246;9.100;2023-06-14T08:21:56;98428.63;;;27.72;51.61
14120;BME280;7138;49.246;9.100;2023-06-14T08:24:22;98422.97;;;27.77;52.12
14120;BME280;7138;49.246;9.100;2023-06-14T08:26:53;98432.81;;;27.87;51.97
14120;BME280;7138;49.246;9.100;2023-06-14T08:29:19;98428.69;;;27.94;52.83
14120;BME280;7138;49.246;9.100;2023-06-14T08:31:47;98423.53;;;28.04;51.02
14120;BME280;7138;49.246;9.100;2023-06-14T08:34:13;98434.34;;;28.13;51.37
14120;BME280;7138;49.246;9.100;2023-06-14T08:36:39;98434.75;;;28.31;51.13
14120;BME280;7138;49.246;9.100;2023-06-14T08:39:05;98428.44;;;28.21;50.37
14120;BME280;7138;49.246;9.100;2023-06-14T08:41:32;98437.75;;;28.15;49.46
14120;BME280;7138;49.246;9.100;2023-06-14T08:43:58;98438.63;;;28.03;49.58
14120;BME280;7138;49.246;9.100;2023-06-14T08:46:26;98437.72;;;27.81;49.39
14120;BME280;7138;49.246;9.100;2023-06-14T08:48:55;98431.38;;;27.71;50.60
14120;BME280;7138;49.246;9.100;2023-06-14T08:51:26;98443.50;;;27.51;50.63
14120;BME280;7138;49.246;9.100;2023-06-14T08:54:00;98439.41;;;27.58;51.93
14120;BME280;7138;49.246;9.100;2023-06-14T08:56:28;98445.03;;;27.66;51.00
14120;BME280;7138;49.246;9.100;2023-06-14T08:58:56;98440.94;;;27.73;51.41
14120;BME280;7138;49.246;9.100;2023-06-14T09:01:23;98432.81;;;27.87;51.81
14120;BME280;7138;49.246;9.100;2023-06-14T09:03:49;98446.47;;;27.94;50.40
14120;BME280;7138;49.246;9.100;2023-06-14T09:06:17;98440.16;;;28.07;51.83
14120;BME280;7138;49.246;9.100;2023-06-14T09:08:46;98445.94;;;28.12;49.71
14120;BME280;7138;49.246;9.100;2023-06-14T09:11:16;98449.22;;;28.16;50.22
14120;BME280;7138;49.246;9.100;2023-06-14T09:13:44;98438.34;;;28.19;49.52
14120;BME280;7138;49.246;9.100;2023-06-14T09:16:11;98448.44;;;28.27;50.44
14120;BME280;7138;49.246;9.100;2023-06-14T09:18:39;98450.38;;;28.36;49.11
14120;BME280;7138;49.246;9.100;2023-06-14T09:21:07;98453.75;;;28.27;49.39
14120;BME280;7138;49.246;9.100;2023-06-14T09:23:37;98445.28;;;28.33;49.79
14120;BME280;7138;49.246;9.100;2023-06-14T09:26:07;98454.38;;;28.41;49.58
14120;BME280;7138;49.246;9.100;2023-06-14T09:28:34;98448.09;;;28.42;49.80
14120;BME280;7138;49.246;9.100;2023-06-14T09:31:00;98451.94;;;28.38;48.91
14120;BME280;7138;49.246;9.100;2023-06-14T09:33:26;98457.97;;;28.29;48.34
14120;BME280;7138;49.246;9.100;2023-06-14T09:35:54;98448.44;;;28.38;50.37
14120;BME280;7138;49.246;9.100;2023-06-14T09:38:20;98447.00;;;28.45;49.86
14120;BME280;7138;49.246;9.100;2023-06-14T09:40:49;98452.81;;;28.50;50.18
14120;BME280;7138;49.246;9.100;2023-06-14T09:43:15;98451.72;;;28.52;48.98
14120;BME280;7138;49.246;9.100;2023-06-14T09:45:42;98457.56;;;28.57;48.54
14120;BME280;7138;49.246;9.100;2023-06-14T09:48:11;98448.59;;;28.58;48.48
14120;BME280;7138;49.246;9.100;2023-06-14T09:50:45;98449.06;;;28.41;48.22
14120;BME280;7138;49.246;9.100;2023-06-14T09:53:12;98451.09;;;28.27;47.97
14120;BME280;7138;49.246;9.100;2023-06-14T09:55:41;98449.22;;;28.16;51.35
14120;BME280;7138;49.246;9.100;2023-06-14T09:58:10;98436.16;;;28.13;48.77
14120;BME280;7138;49.246;9.100;2023-06-14T10:00:39;98449.06;;;28.06;48.35
14120;BME280;7138;49.246;9.100;2023-06-14T10:03:12;98449.81;;;28.08;49.92
14120;BME280;7138;49.246;9.100;2023-06-14T10:05:42;98457.81;;;28.08;49.11
14120;BME280;7138;49.246;9.100;2023-06-14T10:08:14;98432.34;;;27.93;49.22
14120;BME280;7138;49.246;9.100;2023-06-14T10:10:43;98449.06;;;28.06;48.48
14120;BME280;7138;49.246;9.100;2023-06-14T10:13:12;98446.69;;;28.14;49.84
14120;BME280;7138;49.246;9.100;2023-06-14T10:15:47;98448.75;;;28.22;49.57
14120;BME280;7138;49.246;9.100;2023-06-14T10:18:24;98452.81;;;28.39;49.32
14120;BME280;7138;49.246;9.100;2023-06-14T10:21:03;98454.63;;;28.49;45.81
14120;BME280;7138;49.246;9.100;2023-06-14T10:23:37;98453.66;;;28.50;46.79
14120;BME280;7138;49.246;9.100;2023-06-14T10:26:06;98449.78;;;28.43;46.93
14120;BME280;7138;49.246;9.100;2023-06-14T10:28:37;98455.69;;;28.36;46.42
14120;BME280;7138;49.246;9.100;2023-06-14T10:31:09;98446.25;;;28.32;49.20
14120;BME280;7138;49.246;9.100;2023-06-14T10:33:39;98447.09;;;28.32;49.64
14120;BME280;7138;49.246;9.100;2023-06-14T10:36:26;98452.75;;;28.28;47.99
14120;BME280;7138;49.246;9.100;2023-06-14T10:39:06;98451.09;;;28.27;49.68
14120;BME280;7138;49.246;9.100;2023-06-14T10:41:36;98454.00;;;28.35;50.71
14120;BME280;7138;49.246;9.100;2023-06-14T10:44:40;98436.97;;;28.48;47.76
14120;BME280;7138;49.246;9.100;2023-06-14T10:47:20;98448.78;;;28.33;45.96
14120;BME280;7138;49.246;9.100;2023-06-14T10:49:52;98446.59;;;28.27;48.84
14120;BME280;7138;49.246;9.100;2023-06-14T10:52:23;98444.91;;;28.26;48.16
14120;BME280;7138;49.246;9.100;2023-06-14T10:55:08;98446.59;;;28.27;48.40
14120;BME280;7138;49.246;9.100;2023-06-14T10:57:40;98439.13;;;28.32;48.89
14120;BME280;7138;49.246;9.100;2023-06-14T11:00:10;98430.78;;;28.37;48.58
14120;BME280;7138;49.246;9.100;2023-06-14T11:03:31;98434.78;;;28.42;47.38
14120;BME280;7138;49.246;9.100;2023-06-14T11:06:14;98446.16;;;28.44;48.95
14120;BME280;7138;49.246;9.100;2023-06-14T11:11:56;98447.88;;;28.56;47.01
14120;BME280;7138;49.246;9.100;2023-06-14T11:14:23;98433.72;;;28.45;46.45
14120;BME280;7138;49.246;9.100;2023-06-14T11:16:50;98431.72;;;28.25;46.40
14120;BME280;7138;49.246;9.100;2023-06-14T11:19:17;98439.94;;;28.21;46.65
14120;BME280;7138;49.246;9.100;2023-06-14T11:21:47;98440.88;;;28.09;46.59
14120;BME280;7138;49.246;9.100;2023-06-14T11:24:13;98439.09;;;27.97;50.26
14120;BME280;7138;49.246;9.100;2023-06-14T11:26:40;98443.03;;;28.04;49.43
14120;BME280;7138;49.246;9.100;2023-06-14T11:29:06;98442.72;;;28.20;47.44
14120;BME280;7138;49.246;9.100;2023-06-14T11:31:32;98435.13;;;28.38;48.84
14120;BME280;7138;49.246;9.100;2023-06-14T11:34:00;98432.00;;;28.55;48.29
14120;BME280;7138;49.246;9.100;2023-06-14T11:36:27;98430.84;;;28.70;47.94
14120;BME280;7138;49.246;9.100;2023-06-14T11:38:59;98435.91;;;28.73;47.70
14120;BME280;7138;49.246;9.100;2023-06-14T11:41:25;98435.69;;;28.87;47.32
14120;BME280;7138;49.246;9.100;2023-06-14T11:43:53;98439.69;;;28.82;48.75
14120;BME280;7138;49.246;9.100;2023-06-14T11:46:19;98436.88;;;28.94;50.92
14120;BME280;7138;49.246;9.100;2023-06-14T11:48:49;98427.56;;;29.11;49.66
14120;BME280;7138;49.246;9.100;2023-06-14T11:51:19;98433.84;;;29.21;46.04
14120;BME280;7138;49.246;9.100;2023-06-14T11:53:45;98437.97;;;29.25;46.64
14120;BME280;7138;49.246;9.100;2023-06-14T11:56:11;98431.28;;;29.31;46.90
14120;BME280;7138;49.246;9.100;2023-06-14T11:58:37;98431.03;;;29.45;48.25
14120;BME280;7138;49.246;9.100;2023-06-14T12:01:03;98434.22;;;29.39;45.39
14120;BME280;7138;49.246;9.100;2023-06-14T12:03:29;98431.69;;;29.26;46.58
14120;BME280;7138;49.246;9.100;2023-06-14T12:06:06;98428.66;;;29.08;48.43
14120;BME280;7138;49.246;9.100;2023-06-14T12:08:37;98435.91;;;29.06;47.78
14120;BME280;7138;49.246;9.100;2023-06-14T12:11:10;98441.47;;;29.03;46.83
14120;BME280;7138;49.246;9.100;2023-06-14T12:13:38;98444.38;;;29.00;46.75
14120;BME280;7138;49.246;9.100;2023-06-14T12:16:07;98436.78;;;28.96;46.69
14120;BME280;7138;49.246;9.100;2023-06-14T12:18:34;98442.44;;;28.91;48.09
14120;BME280;7138;49.246;9.100;2023-06-14T12:21:01;98440.03;;;28.88;46.43
14120;BME280;7138;49.246;9.100;2023-06-14T12:23:42;98435.09;;;28.84;47.66
14120;BME280;7138;49.246;9.100;2023-06-14T12:26:08;98432.19;;;28.87;48.22
14120;BME280;7138;49.246;9.100;2023-06-14T12:28:35;98428.66;;;28.97;47.56
14120;BME280;7138;49.246;9.100;2023-06-14T12:31:00;98417.16;;;29.08;50.38
14120;BME280;7138;49.246;9.100;2023-06-14T12:33:26;98426.09;;;29.07;46.37
14120;BME280;7138;49.246;9.100;2023-06-14T12:35:55;98439.06;;;29.11;46.03
14120;BME280;7138;49.246;9.100;2023-06-14T12:38:23;98426.13;;;28.96;47.03
14120;BME280;7138;49.246;9.100;2023-06-14T12:40:50;98438.34;;;28.76;45.83
14120;BME280;7138;49.246;9.100;2023-06-14T12:43:16;98438.56;;;28.62;46.65
14120;BME280;7138;49.246;9.100;2023-06-14T12:45:41;98432.38;;;28.50;48.30
14120;BME280;7138;49.246;9.100;2023-06-14T12:48:07;98429.34;;;28.44;46.13
14120;BME280;7138;49.246;9.100;2023-06-14T12:50:34;98428.63;;;28.42;46.57
14120;BME280;7138;49.246;9.100;2023-06-14T12:53:00;98433.03;;;28.19;48.20
14120;BME280;7138;49.246;9.100;2023-06-14T12:55:26;98432.78;;;28.11;49.97
14120;BME280;7138;49.246;9.100;2023-06-14T12:57:53;98423.25;;;28.19;48.32
14120;BME280;7138;49.246;9.100;2023-06-14T13:00:19;98423.78;;;28.36;48.29
14120;BME280;7138;49.246;9.100;2023-06-14T13:02:47;98421.50;;;28.42;47.47
14120;BME280;7138;49.246;9.100;2023-06-14T13:05:12;98427.38;;;28.35;47.51
14120;BME280;7138;49.246;9.100;2023-06-14T13:07:38;98441.00;;;28.08;47.72
14120;BME280;7138;49.246;9.100;2023-06-14T13:10:05;98440.44;;;28.03;47.08
14120;BME280;7138;49.246;9.100;2023-06-14T13:12:31;98437.03;;;27.90;47.05
14120;BME280;7138;49.246;9.100;2023-06-14T13:14:58;98439.41;;;27.82;48.40
14120;BME280;7138;49.246;9.100;2023-06-14T13:17:24;98429.84;;;27.79;50.18